^^
Grace C. Lehan Memorial Weather Station Historical Data
Daily Summary for February 17, 2021 Units:  Metric    English   Both
Daily Weekly Monthly Yearly
  High: Low: Average:
Temperature: 7.4 °C 1.2 °C 4.2 °C
Dew Point: -0.4 °C -2.7 °C -1.4 °C
Humidity: 86% 57% 68%
Wind Speed: 12.1km/h 0km/h 4km/h
Wind Gust: 41.8km/h - -
Wind- - WSW
Pressure: 1003.3 hPa 992.4 hPa -
Precipitation: 0 mm    
 
 
Tabular Data for February 17, 2021
Time Temperature Dew Point Pressure Wind Wind Speed Wind Gust Humidity Rainfall Rate (Hourly) solar
00:04 1.3 °C -0.8 °C 992.4 hPa WSW 1.9 km/h 14.5 km/h 86% 0 mm 0 W/m2
00:09 1.2 °C -0.9 °C 992.4 hPa WSW 4.2 km/h 17.7 km/h 85.4% 0 mm 0 W/m2
00:14 1.2 °C -1 °C 992.4 hPa WSW 1.3 km/h 17.7 km/h 85% 0 mm 0 W/m2
00:19 1.2 °C -1 °C 992.8 hPa WSW 4.2 km/h 17.7 km/h 85% 0 mm 0 W/m2
00:24 1.2 °C -1 °C 992.8 hPa WSW 3.1 km/h 20.9 km/h 85% 0 mm 0 W/m2
00:29 1.2 °C -1 °C 992.8 hPa WSW 4.5 km/h 20.9 km/h 85% 0 mm 0 W/m2
00:34 1.3 °C -0.9 °C 993.1 hPa WSW 3.2 km/h 20.9 km/h 85% 0 mm 0 W/m2
00:39 1.3 °C -0.9 °C 993.1 hPa WSW 4 km/h 14.5 km/h 85% 0 mm 0 W/m2
00:44 1.3 °C -1 °C 993.1 hPa WSW 3.4 km/h 17.7 km/h 84.7% 0 mm 0 W/m2
00:49 1.3 °C -1.1 °C 993.5 hPa WSW 4.3 km/h 17.7 km/h 84% 0 mm 0 W/m2
00:54 1.3 °C -1.1 °C 993.5 hPa WSW 4.5 km/h 17.7 km/h 84% 0 mm 0 W/m2
00:59 1.3 °C -1.1 °C 993.5 hPa SW 3.5 km/h 19.3 km/h 84% 0 mm 0 W/m2
01:03 1.3 °C -1.1 °C 993.5 hPa WSW 3.1 km/h 19.3 km/h 84% 0 mm 0 W/m2
01:09 1.3 °C -1.1 °C 993.5 hPa WSW 1.8 km/h 11.3 km/h 83.9% 0 mm 0 W/m2
01:14 1.3 °C -1.2 °C 993.5 hPa WSW 4.8 km/h 16.1 km/h 83% 0 mm 0 W/m2
01:19 1.3 °C -1.2 °C 993.8 hPa SW 2.3 km/h 16.1 km/h 83% 0 mm 0 W/m2
01:24 1.3 °C -1.2 °C 993.8 hPa WSW 3.7 km/h 16.1 km/h 83% 0 mm 0 W/m2
01:29 1.3 °C -1.2 °C 993.8 hPa WSW 4.7 km/h 16.1 km/h 83% 0 mm 0 W/m2
01:34 1.4 °C -1.2 °C 994.1 hPa SW 4.7 km/h 20.9 km/h 82.7% 0 mm 0 W/m2
01:39 1.4 °C -1.3 °C 994.1 hPa SW 4.2 km/h 20.9 km/h 82% 0 mm 0 W/m2
01:44 1.4 °C -1.3 °C 994.1 hPa SW 4 km/h 20.9 km/h 82% 0 mm 0 W/m2
01:49 1.4 °C -1.3 °C 994.1 hPa SW 2.7 km/h 20.9 km/h 82% 0 mm 0 W/m2
01:54 1.4 °C -1.3 °C 994.1 hPa WSW 2.3 km/h 20.9 km/h 82% 0 mm 0 W/m2
01:59 1.5 °C -1.3 °C 994.5 hPa SW 3.9 km/h 20.9 km/h 81.9% 0 mm 0 W/m2
02:04 1.5 °C -1.3 °C 994.5 hPa WSW 5.3 km/h 20.9 km/h 81.8% 0 mm 0 W/m2
02:09 1.6 °C -1.3 °C 994.5 hPa SW 3.2 km/h 19.3 km/h 81% 0 mm 0 W/m2
02:14 1.6 °C -1.3 °C 994.8 hPa WSW 2.3 km/h 19.3 km/h 81% 0 mm 0 W/m2
02:19 1.6 °C -1.4 °C 994.8 hPa SW 3.1 km/h 19.3 km/h 80.6% 0 mm 0 W/m2
02:24 1.6 °C -1.4 °C 994.8 hPa WSW 1 km/h 19.3 km/h 80% 0 mm 0 W/m2
02:29 1.6 °C -1.4 °C 994.8 hPa WSW 0.3 km/h 19.3 km/h 80% 0 mm 0 W/m2
02:34 1.6 °C -1.5 °C 994.8 hPa WSW 2.1 km/h 25.7 km/h 80% 0 mm 0 W/m2
02:39 1.6 °C -1.5 °C 994.8 hPa WSW 2.1 km/h 25.7 km/h 80% 0 mm 0 W/m2
02:44 1.6 °C -1.5 °C 994.8 hPa WSW 1.9 km/h 25.7 km/h 80% 0 mm 0 W/m2
02:49 1.6 °C -1.5 °C 994.8 hPa SW 3.5 km/h 25.7 km/h 80% 0 mm 0 W/m2
02:54 1.6 °C -1.5 °C 994.8 hPa SW 2.1 km/h 25.7 km/h 80% 0 mm 0 W/m2
02:59 1.6 °C -1.4 °C 994.8 hPa WSW 3.4 km/h 25.7 km/h 80% 0 mm 0 W/m2
03:04 1.6 °C -1.4 °C 995.1 hPa SW 2.4 km/h 25.7 km/h 80% 0 mm 0 W/m2
03:09 1.6 °C -1.4 °C 995.1 hPa SW 1.1 km/h 11.3 km/h 80% 0 mm 0 W/m2
03:14 1.7 °C -1.5 °C 995.1 hPa WSW 2.9 km/h 20.9 km/h 79.6% 0 mm 0 W/m2
03:19 1.7 °C -1.6 °C 995.1 hPa WSW 3.5 km/h 20.9 km/h 79% 0 mm 0 W/m2
03:24 1.7 °C -1.5 °C 995.1 hPa SW 3.7 km/h 20.9 km/h 79% 0 mm 0 W/m2
03:29 1.8 °C -1.4 °C 995.1 hPa SW 4 km/h 22.5 km/h 79% 0 mm 0 W/m2
03:34 1.8 °C -1.4 °C 995.1 hPa SW 4.3 km/h 22.5 km/h 78.6% 0 mm 0 W/m2
03:39 1.9 °C -1.5 °C 994.8 hPa WSW 4.2 km/h 22.5 km/h 78% 0 mm 0 W/m2
03:44 1.9 °C -1.5 °C 995.1 hPa WSW 1.8 km/h 22.5 km/h 78% 0 mm 0 W/m2
03:49 1.9 °C -1.5 °C 995.1 hPa SW 3.4 km/h 22.5 km/h 78% 0 mm 0 W/m2
03:54 1.9 °C -1.5 °C 995.1 hPa SW 4.5 km/h 22.5 km/h 77.9% 0 mm 0 W/m2
03:59 1.9 °C -1.7 °C 995.1 hPa SW 5.1 km/h 22.5 km/h 77% 0 mm 0 W/m2
04:00 1.9 °C -1.7 °C 995.1 hPa Calm   22.5 km/h 77% 0 mm 0 W/m2
04:09 1.9 °C -1.7 °C 995.5 hPa SW 5.5 km/h 19.3 km/h 77% 0 mm 0 W/m2
04:14 2 °C -1.6 °C 995.5 hPa WSW 5.6 km/h 25.7 km/h 77% 0 mm 0 W/m2
04:19 2.1 °C -1.6 °C 995.5 hPa SW 3.1 km/h 25.7 km/h 77% 0 mm 0 W/m2
04:24 2.1 °C -1.6 °C 995.5 hPa SW 7.4 km/h 25.7 km/h 77% 0 mm 0 W/m2
04:29 2.1 °C -1.7 °C 995.5 hPa SW 3.1 km/h 25.7 km/h 76.3% 0 mm 0 W/m2
04:34 2.1 °C -1.7 °C 995.5 hPa WSW 5.6 km/h 25.7 km/h 76% 0 mm 0 W/m2
04:39 2.1 °C -1.7 °C 995.8 hPa SW 7.6 km/h 24.1 km/h 76% 0 mm 0 W/m2
04:44 2.1 °C -1.7 °C 995.8 hPa SW 4.5 km/h 24.1 km/h 76% 0 mm 0 W/m2
04:49 2.1 °C -1.7 °C 995.8 hPa SW 6.1 km/h 24.1 km/h 76% 0 mm 0 W/m2
04:54 2.1 °C -1.7 °C 995.8 hPa SW 4.2 km/h 24.1 km/h 76% 0 mm 0 W/m2
04:59 2.1 °C -1.7 °C 995.8 hPa SW 6.1 km/h 24.1 km/h 76% 0 mm 0 W/m2
05:04 2.1 °C -1.6 °C 996.2 hPa SW 2.7 km/h 24.1 km/h 76.6% 0 mm 0 W/m2
05:09 2 °C -1.7 °C 996.2 hPa SW 5.3 km/h 22.5 km/h 76.7% 0 mm 0 W/m2
05:14 2 °C -1.7 °C 996.2 hPa SW 5.1 km/h 22.5 km/h 76.6% 0 mm 0 W/m2
05:19 2 °C -1.8 °C 996.2 hPa SW 7.7 km/h 22.5 km/h 76% 0 mm 0 W/m2
05:24 2 °C -1.8 °C 996.2 hPa SW 2.1 km/h 22.5 km/h 76% 0 mm 0 W/m2
05:29 2 °C -1.8 °C 996.2 hPa SW 3.2 km/h 22.5 km/h 76% 0 mm 0 W/m2
05:34 2 °C -1.8 °C 996.2 hPa SW 4.7 km/h 22.5 km/h 76% 0 mm 0 W/m2
05:39 2 °C -1.8 °C 996.2 hPa SW 6.3 km/h 19.3 km/h 75.7% 0 mm 0 W/m2
05:44 2 °C -1.9 °C 996.2 hPa WSW 5.5 km/h 19.3 km/h 75% 0 mm 0 W/m2
05:49 2 °C -1.9 °C 996.2 hPa SW 4.5 km/h 19.3 km/h 75% 0 mm 0 W/m2
05:54 2 °C -2 °C 996.2 hPa SW 5 km/h 19.3 km/h 74.8% 0 mm 0 W/m2
05:59 2 °C -2.2 °C 996.2 hPa SW 6.4 km/h 19.3 km/h 74% 0 mm 0 W/m2
06:04 2 °C -2.1 °C 996.5 hPa SW 4.3 km/h 20.9 km/h 74% 0 mm 0 W/m2
06:09 2.1 °C -2.2 °C 996.5 hPa SW 2.3 km/h 20.9 km/h 73.5% 0 mm 0 W/m2
06:14 2 °C -2.2 °C 996.5 hPa WSW 6 km/h 20.9 km/h 73.7% 0 mm 0 W/m2
06:19 2 °C -2.3 °C 996.5 hPa SW 6.9 km/h 20.9 km/h 73.1% 0 mm 0 W/m2
06:24 2 °C -2.3 °C 996.5 hPa WSW 2.4 km/h 20.9 km/h 73% 0 mm 0 W/m2
06:29 2 °C -2.3 °C 996.8 hPa SW 6 km/h 20.9 km/h 73% 0 mm 0 W/m2
06:34 2 °C -2.3 °C 996.8 hPa WSW 6 km/h 20.9 km/h 73% 0 mm 0 W/m2
06:39 2 °C -2.3 °C 996.8 hPa SW 6 km/h 24.1 km/h 73% 0 mm 0 W/m2
06:44 2 °C -2.3 °C 996.8 hPa WSW 5 km/h 24.1 km/h 72.9% 0 mm 0 W/m2
06:49 2 °C -2.5 °C 996.8 hPa SW 5.8 km/h 29 km/h 72% 0 mm 0 W/m2
06:54 2 °C -2.5 °C 996.8 hPa SW 5.6 km/h 29 km/h 72% 0 mm 0 W/m2
06:59 2.1 °C -2.6 °C 997.2 hPa SW 5.8 km/h 29 km/h 71.4% 0 mm 0 W/m2
07:04 2.1 °C -2.5 °C 997.2 hPa SW 3.7 km/h 29 km/h 71.6% 0 mm 0 W/m2
07:09 2.1 °C -2.7 °C 997.2 hPa SW 6 km/h 19.3 km/h 71% 0 mm 0 W/m2
07:14 2.1 °C -2.6 °C 997.2 hPa SW 6 km/h 19.3 km/h 71% 0 mm 0 W/m2
07:19 2.1 °C -2.7 °C 997.2 hPa SW 4.5 km/h 19.3 km/h 70.2% 0 mm 7 W/m2
07:24 2.1 °C -2.7 °C 997.2 hPa SW 3.5 km/h 19.3 km/h 70.4% 0 mm 9 W/m2
07:29 2.2 °C -2.7 °C 997.2 hPa SW 5.8 km/h 19.3 km/h 70% 0 mm 11 W/m2
07:34 2.2 °C -2.7 °C 997.5 hPa WSW 4.3 km/h 22.5 km/h 69.9% 0 mm 14 W/m2
07:39 2.2 °C -2.7 °C 997.9 hPa SW 4.5 km/h 22.5 km/h 70% 0 mm 16 W/m2
07:44 2.2 °C -2.7 °C 997.9 hPa SW 4 km/h 22.5 km/h 70% 0 mm 19 W/m2
07:49 2.2 °C -2.7 °C 997.9 hPa SW 1.9 km/h 22.5 km/h 70% 0 mm 37 W/m2
07:54 2.3 °C -2.6 °C 997.9 hPa SW 5.6 km/h 22.5 km/h 69.8% 0 mm 42 W/m2
07:59 2.4 °C -2.7 °C 997.9 hPa SW 3.1 km/h 22.5 km/h 69.1% 0 mm 39 W/m2
08:00 2.5 °C -2.6 °C 997.5 hPa SW 3.2 km/h 22.5 km/h 69% 0 mm 30 W/m2
08:09 2.8 °C -2.7 °C 997.5 hPa SW 6.1 km/h 24.1 km/h 67.6% 0 mm 76 W/m2
08:14 2.9 °C -2.6 °C 997.5 hPa SW 2.7 km/h 24.1 km/h 67% 0 mm 47 W/m2
08:19 3.1 °C -2.6 °C 997.5 hPa SW 6.4 km/h 24.1 km/h 66.3% 0 mm 79 W/m2
08:24 3.2 °C -2.7 °C 997.5 hPa SW 7.9 km/h 25.7 km/h 65.3% 0 mm 123 W/m2
08:29 3.3 °C -2.6 °C 997.5 hPa SW 7.9 km/h 29 km/h 65% 0 mm 135 W/m2
08:34 3.5 °C -2.6 °C 997.5 hPa SW 9.2 km/h 29 km/h 64.4% 0 mm 111 W/m2
08:39 3.6 °C -2.4 °C 997.9 hPa SW 5.1 km/h 24.1 km/h 64.6% 0 mm 104 W/m2
08:44 3.6 °C -2.4 °C 997.9 hPa SW 5.3 km/h 24.1 km/h 64.7% 0 mm 105 W/m2
08:49 3.7 °C -2.5 °C 997.9 hPa SW 4.7 km/h 24.1 km/h 64.1% 0 mm 130 W/m2
08:54 3.8 °C -2.4 °C 998.2 hPa SW 6.4 km/h 24.1 km/h 64.1% 0 mm 146 W/m2
08:59 3.9 °C -2.3 °C 998.2 hPa SW 3.7 km/h 24.1 km/h 63.7% 0 mm 171 W/m2
09:04 4.1 °C -2.3 °C 998.5 hPa WSW 4.3 km/h 24.1 km/h 62.9% 0 mm 179 W/m2
09:09 4.2 °C -2.4 °C 998.2 hPa WSW 3.2 km/h 19.3 km/h 62.2% 0 mm 46 W/m2
09:14 4.2 °C -2.4 °C 998.2 hPa WSW 7.6 km/h 20.9 km/h 61.8% 0 mm 162 W/m2
09:19 4.2 °C -2.6 °C 998.5 hPa SW 7.7 km/h 22.5 km/h 61.2% 0 mm 160 W/m2
09:24 4.3 °C -2.4 °C 998.5 hPa SW 5.6 km/h 24.1 km/h 61.6% 0 mm 160 W/m2
09:29 4.3 °C -2.3 °C 998.5 hPa WSW 4.7 km/h 24.1 km/h 61.9% 0 mm 183 W/m2
09:34 4.4 °C -2.3 °C 998.5 hPa WSW 5.8 km/h 24.1 km/h 61.7% 0 mm 160 W/m2
09:39 4.4 °C -2.4 °C 998.5 hPa WSW 9.2 km/h 22.5 km/h 61% 0 mm 128 W/m2
09:44 4.4 °C -2.4 °C 998.5 hPa WSW 5 km/h 22.5 km/h 61.1% 0 mm 121 W/m2
09:49 4.5 °C -2.3 °C 998.5 hPa WSW 3.5 km/h 22.5 km/h 61.3% 0 mm 120 W/m2
09:54 4.6 °C -1.9 °C 998.5 hPa WSW 3.5 km/h 22.5 km/h 62.3% 0 mm 95 W/m2
09:59 4.7 °C -2.2 °C 998.9 hPa WSW 4.7 km/h 29 km/h 60.8% 0 mm 95 W/m2
10:04 4.7 °C -2.3 °C 998.9 hPa WSW 8.5 km/h 29 km/h 60.3% 0 mm 97 W/m2
10:09 4.7 °C -2.3 °C 998.5 hPa WSW 6.8 km/h 27.4 km/h 60.2% 0 mm 114 W/m2
10:13 4.8 °C -2.1 °C 998.5 hPa WSW 6.8 km/h 38.6 km/h 61% 0 mm 197 W/m2
10:19 4.8 °C -2.2 °C 998.5 hPa WSW 10.3 km/h 38.6 km/h 60.2% 0 mm 181 W/m2
10:24 5.1 °C -1.9 °C 998.2 hPa WSW 7.4 km/h 38.6 km/h 60.7% 0 mm 253 W/m2
10:29 5.3 °C -1.8 °C 998.5 hPa SW 6.9 km/h 38.6 km/h 60.5% 0 mm 251 W/m2
10:34 5.5 °C -1.6 °C 998.5 hPa SW 8.9 km/h 38.6 km/h 60.3% 0 mm 360 W/m2
10:39 5.7 °C -1.6 °C 998.9 hPa SW 9.5 km/h 41.8 km/h 59.6% 0 mm 425 W/m2
10:44 5.9 °C -1.3 °C 998.5 hPa SW 4 km/h 41.8 km/h 59.9% 0 mm 452 W/m2
10:49 6.2 °C -1.2 °C 998.9 hPa West 9.5 km/h 41.8 km/h 59.4% 0 mm 452 W/m2
10:54 6.4 °C -1 °C 998.9 hPa SW 9.7 km/h 41.8 km/h 59.1% 0 mm 452 W/m2
10:59 6.5 °C -1.2 °C 998.5 hPa SW 12.1 km/h 41.8 km/h 57.8% 0 mm 260 W/m2
11:04 6.5 °C -1.2 °C 998.5 hPa SW 9.2 km/h 41.8 km/h 58% 0 mm 272 W/m2
11:09 6.4 °C -1.2 °C 998.5 hPa WSW 7.7 km/h 33.8 km/h 57.8% 0 mm 272 W/m2
11:14 6.4 °C -1.2 °C 998.5 hPa WSW 8.9 km/h 33.8 km/h 58.1% 0 mm 257 W/m2
11:19 6.4 °C -1.2 °C 998.5 hPa SW 9.5 km/h 33.8 km/h 57.9% 0 mm 250 W/m2
11:24 6.4 °C -1.3 °C 998.5 hPa SW 9.3 km/h 33.8 km/h 57.5% 0 mm 325 W/m2
11:29 6.5 °C -1.1 °C 998.5 hPa WSW 4.3 km/h 33.8 km/h 58.2% 0 mm 207 W/m2
11:34 6.4 °C -1.2 °C 998.5 hPa SW 7.2 km/h 33.8 km/h 58.4% 0 mm 174 W/m2
11:39 6.3 °C -1.4 °C 998.5 hPa WSW 5 km/h 33.8 km/h 57.8% 0 mm 253 W/m2
11:44 6.1 °C -1.5 °C 998.9 hPa West 4.3 km/h 33.8 km/h 58% 0 mm 285 W/m2
11:48 6.2 °C -1.3 °C 998.9 hPa WSW 10.5 km/h 33.8 km/h 58.8% 0 mm 520 W/m2
11:54 6.3 °C -1.4 °C 998.5 hPa SW 7.6 km/h 33.8 km/h 58% 0 mm 149 W/m2
11:59 6.2 °C -1.5 °C 998.5 hPa WSW 8.2 km/h 33.8 km/h 57.7% 0 mm 179 W/m2
12:00 6.1 °C -1.8 °C 998.5 hPa WSW 4.8 km/h 33.8 km/h 57% 0 mm 179 W/m2
12:09 5.9 °C -1.7 °C 998.5 hPa WSW 4.7 km/h 16.1 km/h 58.3% 0 mm 144 W/m2
12:14 5.8 °C -1.6 °C 998.5 hPa SW 6.4 km/h 17.7 km/h 59% 0 mm 95 W/m2
12:19 5.6 °C -1.7 °C 998.5 hPa WSW 6.9 km/h 25.7 km/h 59% 0 mm 93 W/m2
12:24 5.6 °C -1.7 °C 998.2 hPa SW 8.2 km/h 27.4 km/h 59.7% 0 mm 292 W/m2
12:29 5.6 °C -1.6 °C 998.2 hPa WSW 8.2 km/h 27.4 km/h 59.7% 0 mm 178 W/m2
12:34 5.7 °C -1.4 °C 998.5 hPa SW 7.9 km/h 27.4 km/h 59.9% 0 mm 381 W/m2
12:39 5.8 °C -1.5 °C 998.5 hPa WSW 9.3 km/h 24.1 km/h 59.5% 0 mm 381 W/m2
12:44 5.8 °C -1.4 °C 998.5 hPa West 4 km/h 27.4 km/h 59.6% 0 mm 109 W/m2
12:48 5.9 °C -1.3 °C 998.5 hPa SW 3.5 km/h 29 km/h 60% 0 mm 127 W/m2
12:54 5.8 °C -1.4 °C 998.5 hPa West 4.2 km/h 29 km/h 59.6% 0 mm 146 W/m2
12:59 5.8 °C -1.5 °C 998.5 hPa SW 3.9 km/h 29 km/h 59.6% 0 mm 139 W/m2
13:04 5.7 °C -1.5 °C 998.5 hPa West 6.6 km/h 29 km/h 59.9% 0 mm 128 W/m2
13:09 5.7 °C -1.5 °C 998.5 hPa WSW 7.9 km/h 27.4 km/h 60% 0 mm 120 W/m2
13:14 5.6 °C -1.4 °C 998.5 hPa West 7.1 km/h 27.4 km/h 60.5% 0 mm 151 W/m2
13:19 5.8 °C -1.2 °C 998.5 hPa WSW 3.1 km/h 27.4 km/h 60.7% 0 mm 320 W/m2
13:24 5.9 °C -1.2 °C 998.5 hPa West 4.7 km/h 27.4 km/h 60.2% 0 mm 439 W/m2
13:29 6.2 °C -1.1 °C 998.5 hPa WSW 7.7 km/h 38.6 km/h 59.8% 0 mm 364 W/m2
13:34 6.4 °C -1 °C 998.5 hPa WSW 6.8 km/h 38.6 km/h 59.2% 0 mm 431 W/m2
13:39 6.7 °C -1.1 °C 998.9 hPa SW 9.8 km/h 25.7 km/h 57.4% 0 mm 297 W/m2
13:44 6.8 °C -0.9 °C 998.9 hPa West 2.6 km/h 25.7 km/h 57.9% 0 mm 330 W/m2
13:49 6.9 °C -0.6 °C 998.9 hPa SW 3.2 km/h 25.7 km/h 58.5% 0 mm 330 W/m2
13:54 7.1 °C -0.6 °C 998.9 hPa West 5.8 km/h 25.7 km/h 58% 0 mm 199 W/m2
13:59 7.2 °C -0.6 °C 998.9 hPa WSW 6.9 km/h 37 km/h 57.5% 0 mm 297 W/m2
14:04 7.2 °C -0.5 °C 998.9 hPa West 4.7 km/h 37 km/h 57.8% 0 mm 253 W/m2
14:09 7.3 °C -0.4 °C 999.2 hPa WSW 5 km/h 20.9 km/h 58% 0 mm 316 W/m2
14:14 7.4 °C -0.4 °C 999.2 hPa WSW 3.4 km/h 20.9 km/h 57.9% 0 mm 469 W/m2
14:19 7.4 °C -0.5 °C 999.2 hPa WSW 5.1 km/h 29 km/h 57.4% 0 mm 469 W/m2
14:24 7.2 °C -0.8 °C 999.2 hPa SW 2.3 km/h 29 km/h 57% 0 mm 139 W/m2
14:29 7 °C -0.8 °C 999.2 hPa West 5.1 km/h 29 km/h 57.6% 0 mm 221 W/m2
14:34 7 °C -0.8 °C 999.5 hPa WSW 6 km/h 29 km/h 57.6% 0 mm 221 W/m2
14:39 7 °C -0.7 °C 999.5 hPa WSW 4.8 km/h 24.1 km/h 58% 0 mm 176 W/m2
14:44 6.9 °C -0.9 °C 999.5 hPa WSW 2.4 km/h 24.1 km/h 57.5% 0 mm 132 W/m2
14:49 6.8 °C -0.9 °C 999.5 hPa SW 7.4 km/h 24.1 km/h 57.8% 0 mm 100 W/m2
14:54 6.6 °C -1.1 °C 999.5 hPa WSW 6 km/h 24.1 km/h 58% 0 mm 97 W/m2
14:59 6.4 °C -0.8 °C 999.9 hPa WSW 1.1 km/h 24.1 km/h 59.5% 0 mm 81 W/m2
15:04 6.4 °C -0.8 °C 999.9 hPa West 1 km/h 24.1 km/h 60.1% 0 mm 74 W/m2
15:09 6.3 °C -0.8 °C 999.5 hPa WSW 3.9 km/h 16.1 km/h 60.2% 0 mm 69 W/m2
15:14 6.2 °C -0.9 °C 999.9 hPa WSW 5 km/h 24.1 km/h 60% 0 mm 77 W/m2
15:19 6.2 °C -0.9 °C 999.9 hPa West 8.2 km/h 24.1 km/h 60.2% 0 mm 77 W/m2
15:24 6.1 °C -0.9 °C 999.9 hPa WSW 2.3 km/h 24.1 km/h 60.5% 0 mm 65 W/m2
15:29 6.1 °C -0.8 °C 999.9 hPa WSW 5.5 km/h 24.1 km/h 61.3% 0 mm 72 W/m2
15:34 6.1 °C -0.8 °C 999.9 hPa West 1 km/h 24.1 km/h 61.4% 0 mm 79 W/m2
15:39 6.1 °C -0.7 °C 999.9 hPa West 0.8 km/h 4.8 km/h 61.8% 0 mm 77 W/m2
15:44 6.2 °C -0.6 °C 1000.2 hPa WSW 5 km/h 24.1 km/h 61.7% 0 mm 72 W/m2
15:49 6.2 °C -0.7 °C 1000.2 hPa WSW 2.7 km/h 24.1 km/h 61% 0 mm 69 W/m2
15:54 6.2 °C -0.8 °C 1000.2 hPa West 5 km/h 25.7 km/h 60.8% 0 mm 60 W/m2
15:59 6.2 °C -0.7 °C 1000.6 hPa West 1.6 km/h 25.7 km/h 61.1% 0 mm 62 W/m2
16:09 6.3 °C -0.5 °C 1000.6 hPa West 3.5 km/h 19.3 km/h 61.9% 0 mm 42 W/m2
16:14 6.2 °C -0.7 °C 1000.6 hPa SW 1.8 km/h 19.3 km/h 61.1% 0 mm 30 W/m2
16:18 6.1 °C -0.8 °C 1000.6 hPa WSW 2.1 km/h 19.3 km/h 61.2% 0 mm 21 W/m2
16:24 6 °C -0.9 °C 1000.9 hPa WSW 2.9 km/h 19.3 km/h 61.3% 0 mm 14 W/m2
16:29 5.8 °C -0.9 °C 1000.9 hPa WSW 1.6 km/h 19.3 km/h 61.8% 0 mm 12 W/m2
16:34 5.7 °C -0.9 °C 1000.9 hPa WSW 2.6 km/h 19.3 km/h 62.1% 0 mm 7 W/m2
16:39 5.6 °C -1.1 °C 1000.9 hPa WSW 4.3 km/h 22.5 km/h 62.5% 0 mm 5 W/m2
16:44 5.4 °C -1.1 °C 1000.9 hPa WSW 1.3 km/h 22.5 km/h 63% 0 mm 0 W/m2
16:49 5.3 °C -0.9 °C 1000.9 hPa WSW 2.9 km/h 22.5 km/h 63.9% 0 mm 0 W/m2
16:54 5.2 °C -1.1 °C 1001.2 hPa SW 2.1 km/h 22.5 km/h 64% 0 mm 0 W/m2
16:59 5.1 °C -1.2 °C 1001.2 hPa WSW 2.7 km/h 22.5 km/h 64.1% 0 mm 0 W/m2
17:04 5 °C -1.1 °C 1001.2 hPa SW 2.3 km/h 22.5 km/h 65% 0 mm 0 W/m2
17:09 4.9 °C -1.1 °C 1001.2 hPa WSW 1.1 km/h 17.7 km/h 65% 0 mm 0 W/m2
17:14 4.8 °C -0.9 °C 1001.6 hPa WSW 2.6 km/h 17.7 km/h 66.3% 0 mm 0 W/m2
17:19 4.8 °C -0.7 °C 1001.6 hPa SW 1.6 km/h 17.7 km/h 67.5% 0 mm 0 W/m2
17:24 4.8 °C -0.8 °C 1001.6 hPa SW 2.3 km/h 17.7 km/h 67% 0 mm 0 W/m2
17:29 4.8 °C -0.7 °C 1001.6 hPa SW 2.3 km/h 17.7 km/h 67.3% 0 mm 0 W/m2
17:34 4.8 °C -0.7 °C 1001.6 hPa WSW 1.6 km/h 17.7 km/h 67.2% 0 mm 0 W/m2
17:39 4.8 °C -0.8 °C 1001.6 hPa SW 1.3 km/h 11.3 km/h 66.9% 0 mm 0 W/m2
17:44 4.9 °C -0.8 °C 1001.6 hPa WSW 1.4 km/h 11.3 km/h 66.6% 0 mm 0 W/m2
17:49 4.9 °C -0.9 °C 1001.9 hPa SW 1.3 km/h 11.3 km/h 66% 0 mm 0 W/m2
17:54 5 °C -0.8 °C 1001.9 hPa WSW 0.8 km/h 11.3 km/h 66% 0 mm 0 W/m2
17:59 5 °C -0.8 °C 1001.9 hPa SW 2.1 km/h 11.3 km/h 66.1% 0 mm 0 W/m2
18:03 5 °C -0.6 °C 1001.9 hPa SW 3.2 km/h 11.3 km/h 66.8% 0 mm 0 W/m2
18:09 5.1 °C -0.8 °C 1001.9 hPa SW 1.4 km/h 11.3 km/h 65.5% 0 mm 0 W/m2
18:14 5.2 °C -0.9 °C 1001.9 hPa SW 1.6 km/h 11.3 km/h 65% 0 mm 0 W/m2
18:19 5.2 °C -0.9 °C 1002.3 hPa SW 3.5 km/h 17.7 km/h 64.9% 0 mm 0 W/m2
18:24 5.2 °C -0.9 °C 1002.3 hPa SW 3.4 km/h 17.7 km/h 64.4% 0 mm 0 W/m2
18:29 5.2 °C -0.9 °C 1002.3 hPa SW 1.3 km/h 17.7 km/h 64.7% 0 mm 0 W/m2
18:34 5.2 °C -0.8 °C 1002.3 hPa WSW 0.6 km/h 17.7 km/h 64.9% 0 mm 0 W/m2
18:39 5.2 °C -0.9 °C 1002.3 hPa WSW 1 km/h 9.7 km/h 64.5% 0 mm 0 W/m2
18:44 5.2 °C -0.9 °C 1002.3 hPa WSW 0.5 km/h 9.7 km/h 64.7% 0 mm 0 W/m2
18:49 5.2 °C -0.9 °C 1002.6 hPa WSW 1.1 km/h 9.7 km/h 64.8% 0 mm 0 W/m2
18:54 5.2 °C -1.1 °C 1002.6 hPa WSW 0.3 km/h 9.7 km/h 64.2% 0 mm 0 W/m2
18:59 5.2 °C -1.1 °C 1002.6 hPa SW 3.4 km/h 14.5 km/h 64% 0 mm 0 W/m2
19:04 5.2 °C -1 °C 1002.6 hPa WSW 0.6 km/h 14.5 km/h 64% 0 mm 0 W/m2
19:09 5.3 °C -1 °C 1002.6 hPa WSW 0.3 km/h 4.8 km/h 64% 0 mm 0 W/m2
19:14 5.3 °C -1.1 °C 1002.6 hPa WSW 0.8 km/h 4.8 km/h 63.4% 0 mm 0 W/m2
19:19 5.3 °C -1 °C 1002.6 hPa SW 0.3 km/h 4.8 km/h 64% 0 mm 0 W/m2
19:24 5.3 °C -1 °C 1002.6 hPa Calm   4.8 km/h 64% 0 mm 0 W/m2
19:29 5.2 °C -1 °C 1002.6 hPa SW 0.6 km/h 4.8 km/h 64% 0 mm 0 W/m2
19:34 5.2 °C -1 °C 1002.9 hPa WSW 0.6 km/h 4.8 km/h 64% 0 mm 0 W/m2
19:39 5.3 °C -1 °C 1002.9 hPa WSW 2.1 km/h 19.3 km/h 64% 0 mm 0 W/m2
19:44 5.3 °C -1.1 °C 1002.9 hPa WSW 1.6 km/h 19.3 km/h 63.7% 0 mm 0 W/m2
19:49 5.3 °C -0.9 °C 1002.9 hPa WSW 1.8 km/h 19.3 km/h 64% 0 mm 0 W/m2
19:54 5.3 °C -0.9 °C 1002.9 hPa SW 0.8 km/h 19.3 km/h 64% 0 mm 0 W/m2
19:59 5.3 °C -0.9 °C 1002.9 hPa SW 1.4 km/h 19.3 km/h 63.9% 0 mm 0 W/m2
20:00 5.3 °C -1.1 °C 1002.9 hPa Calm   19.3 km/h 63% 0 mm 0 W/m2
20:09 5.4 °C -1.1 °C 1003.3 hPa SW 0.5 km/h 3.2 km/h 63.2% 0 mm 0 W/m2
20:14 5.4 °C -0.9 °C 1003.3 hPa SW 1.6 km/h 4.8 km/h 63.5% 0 mm 0 W/m2
20:19 5.4 °C -0.9 °C 1003.3 hPa SW 0.6 km/h 4.8 km/h 63.5% 0 mm 0 W/m2
20:24 5.4 °C -0.9 °C 1003.3 hPa SW 1 km/h 6.4 km/h 63.7% 0 mm 0 W/m2
20:29 5.4 °C -0.9 °C 1003.3 hPa SW 1 km/h 6.4 km/h 63.4% 0 mm 0 W/m2
20:34 5.4 °C -1.1 °C 1003.3 hPa SW 1.8 km/h 6.4 km/h 63% 0 mm 0 W/m2
20:39 5.4 °C -1.1 °C 1003.3 hPa SW 1.8 km/h 8 km/h 63% 0 mm 0 W/m2
20:44 5.4 °C -0.9 °C 1003.3 hPa SW 1.8 km/h 8 km/h 63.7% 0 mm 0 W/m2
20:49 5.4 °C -1 °C 1003.3 hPa SW 4 km/h 11.3 km/h 63.4% 0 mm 0 W/m2
20:54 5.4 °C -0.9 °C 1003.3 hPa SW 1.9 km/h 11.3 km/h 64% 0 mm 0 W/m2
20:59 5.4 °C -0.9 °C 1003.3 hPa SW 1.9 km/h 11.3 km/h 64% 0 mm 0 W/m2
21:04 5.4 °C -0.9 °C 1003.3 hPa SW 1.6 km/h 9.7 km/h 64% 0 mm 0 W/m2
21:09 5.3 °C -0.9 °C 1003.3 hPa SW 3.4 km/h 9.7 km/h 64% 0 mm 0 W/m2
21:14 5.3 °C -0.9 °C 1003.3 hPa WSW 1.6 km/h 9.7 km/h 64% 0 mm 0 W/m2
21:19 5.3 °C -0.8 °C 1003.3 hPa SW 2.9 km/h 11.3 km/h 64.8% 0 mm 0 W/m2
21:24 5.2 °C -0.8 °C 1003.3 hPa WSW 3.4 km/h 11.3 km/h 65% 0 mm 0 W/m2
21:29 5.1 °C -0.9 °C 1003.3 hPa SW 6.1 km/h 11.3 km/h 65% 0 mm 0 W/m2
21:34 5 °C -1 °C 1003.3 hPa SW 3.7 km/h 11.3 km/h 65% 0 mm 0 W/m2
21:39 5 °C -1 °C 1003.3 hPa SW 1.6 km/h 11.3 km/h 65% 0 mm 0 W/m2
21:44 5 °C -0.9 °C 1003.3 hPa SW 3.4 km/h 17.7 km/h 65.7% 0 mm 0 W/m2
21:49 5 °C -0.9 °C 1002.9 hPa SW 1.6 km/h 17.7 km/h 65.4% 0 mm 0 W/m2
21:54 5.1 °C -0.8 °C 1003.3 hPa SW 2.1 km/h 17.7 km/h 65.6% 0 mm 0 W/m2
21:59 5.1 °C -0.9 °C 1003.3 hPa SW 2.9 km/h 17.7 km/h 65.5% 0 mm 0 W/m2
22:04 5.1 °C -0.9 °C 1002.9 hPa SW 2.7 km/h 17.7 km/h 65% 0 mm 0 W/m2
22:09 5.1 °C -0.9 °C 1002.9 hPa SW 1.8 km/h 11.3 km/h 65% 0 mm 0 W/m2
22:13 5.1 °C -0.9 °C 1002.9 hPa SW 2.4 km/h 11.3 km/h 65% 0 mm 0 W/m2
22:19 5.1 °C -0.9 °C 1002.9 hPa SW 2.3 km/h 11.3 km/h 65% 0 mm 0 W/m2
22:24 5.1 °C -0.9 °C 1002.9 hPa SW 1 km/h 11.3 km/h 65.2% 0 mm 0 W/m2
22:29 5 °C -1 °C 1002.9 hPa SW 1.1 km/h 14.5 km/h 65% 0 mm 0 W/m2
22:34 4.9 °C -1.1 °C 1002.9 hPa SW 0.8 km/h 14.5 km/h 65.2% 0 mm 0 W/m2
22:39 4.9 °C -0.9 °C 1002.9 hPa SW 0.8 km/h 4.8 km/h 66% 0 mm 0 W/m2
22:44 4.8 °C -1 °C 1002.9 hPa SW 1 km/h 4.8 km/h 65.9% 0 mm 0 W/m2
22:49 4.8 °C -1.1 °C 1002.9 hPa SW 1.4 km/h 4.8 km/h 65.4% 0 mm 0 W/m2
22:54 4.8 °C -1.1 °C 1003.3 hPa SW 3.1 km/h 14.5 km/h 65.7% 0 mm 0 W/m2
22:59 4.8 °C -1.2 °C 1003.3 hPa SW 1.3 km/h 14.5 km/h 65% 0 mm 0 W/m2
23:04 4.9 °C -1.1 °C 1003.3 hPa WSW 4.8 km/h 4.8 km/h 65% 0 mm 0 W/m2
23:09 4.9 °C -1 °C 1003.3 hPa SW 1.9 km/h 8 km/h 65.5% 0 mm 0 W/m2
23:14 4.9 °C -1.1 °C 1003.3 hPa SW 1.9 km/h 8 km/h 65.3% 0 mm 0 W/m2
23:19 4.9 °C -1.2 °C 1002.9 hPa SW 2.4 km/h 8 km/h 65% 0 mm 0 W/m2
23:24 4.9 °C -1.1 °C 1002.9 hPa SW 3.7 km/h 11.3 km/h 65% 0 mm 0 W/m2
23:29 4.9 °C -1.1 °C 1002.9 hPa SW 3.9 km/h 11.3 km/h 65% 0 mm 0 W/m2
23:34 4.9 °C -1.1 °C 1002.9 hPa SW 1.3 km/h 11.3 km/h 65% 0 mm 0 W/m2
23:39 4.9 °C -1.1 °C 1002.9 hPa SW 3.2 km/h 12.9 km/h 65% 0 mm 0 W/m2
23:44 4.9 °C -1.1 °C 1002.9 hPa SW 1.9 km/h 12.9 km/h 65% 0 mm 0 W/m2
23:49 4.9 °C -1.1 °C 1002.9 hPa SW 3.4 km/h 14.5 km/h 65% 0 mm 0 W/m2
23:54 4.9 °C -1.1 °C 1002.9 hPa SW 2.7 km/h 14.5 km/h 65% 0 mm 0 W/m2
23:59 4.9 °C -1.1 °C 1002.9 hPa SW 2.4 km/h 14.5 km/h 65% 0 mm 0 W/m2
Hartford County Weather
Compliments of Weather Underground - 2 mb